Tomahawk, WI

12:40 PM CST on November 26, 2014 (GMT -0600)
Tomahawk | Change Station
CLOSE
Current Station
Airport
Location: Tomahawk,
Elevation: 1486 ft
Nearby Weather Stations

Elev 1486 ft 45.47 °N, 89.81 °W | Updated 25 minutes ago

Overcast
Overcast
22 °F
Feels Like 22 °F
N
0
Wind Variable Wind from North

Today
High -- | Low -- °F
--% Chance of Precip.
Yesterday
High -- | Low -- °F
Precip. -- in
7:12 AM 4:20 PM
Waxing Crescent, 21% visible
Pressure 30.12 in
Visibility 7.0 miles
Clouds Mostly Cloudy 2300 ft
Overcast 2800 ft
Dew Point 17 °F
Humidity 80%
Rainfall 0.00 in
Snow Depth Not available.
UV 1 out of 12
Pollen .10 out of 12
Air Quality Not available.
Flu Activity Not available.
METAR KTKV 261815Z AUTO 00000KT 7SM -SN BKN023 OVC028 M05/M08 A3012 RMK AO2 T10541084

More Conditions Fewer Conditions

Pressure 30.12 in
Visibility 7.0 miles
Clouds Mostly Cloudy 2300 ft
Overcast 2800 ft
Dew Point 17 °F
Humidity 80%
Rainfall 0.00 in
Snow Depth Not available.
UV 1 out of 12
Pollen .10 out of 12
Air Quality Not available.
Flu Activity Not available.
METAR KTKV 261815Z AUTO 00000KT 7SM -SN BKN023 OVC028 M05/M08 A3012 RMK AO2 T10541084

More Conditions Fewer Conditions

10-Day Weather Forecast

Almanac

Astronomy

Nov. 26, 2014 Rise Set
Actual Time
Civil Twilight
Nautical Twilight
Astronomical Twilight
Moon
Length of Visible Light
Length of Day
Tomorrow will be .
, % of the Moon is Illuminated

Today's Extremes

State Highs State Lows

Community

WunderPhotos

Upload Photos

1,773,827 photos uploaded!

WunderBlogs® & News

Nearby

Air Quality

  Air Quality AQ Index Pollutant
Not available.

Snow Depth

Station Depth Elevation

Earthquake Activity

City Distance Mag. Time & Date
Minimum magnitude displayed is 2.5.

Coastal Water Temperatures

Place Temperature

Nearby Weather Stations